sensor_id;sensor_type;location;lat;lon;timestamp;temperature;humidity
66594;DHT22;53450;42.584;23.366;2023-04-03T00:00:12;4.88;73.90
66594;DHT22;53450;42.584;23.366;2023-04-03T00:02:38;4.84;74.17
66594;DHT22;53450;42.584;23.366;2023-04-03T00:05:06;4.80;74.70
66594;DHT22;53450;42.584;23.366;2023-04-03T00:07:32;4.74;75.02
66594;DHT22;53450;42.584;23.366;2023-04-03T00:09:57;4.61;75.35
66594;DHT22;53450;42.584;23.366;2023-04-03T00:12:23;4.60;75.26
66594;DHT22;53450;42.584;23.366;2023-04-03T00:14:48;4.71;75.06
66594;DHT22;53450;42.584;23.366;2023-04-03T00:17:14;4.74;74.90
66594;DHT22;53450;42.584;23.366;2023-04-03T00:19:40;4.70;74.85
66594;DHT22;53450;42.584;23.366;2023-04-03T00:22:05;4.67;74.98
66594;DHT22;53450;42.584;23.366;2023-04-03T00:24:31;4.65;74.65
66594;DHT22;53450;42.584;23.366;2023-04-03T00:26:56;4.53;74.56
66594;DHT22;53450;42.584;23.366;2023-04-03T00:29:22;4.39;74.75
66594;DHT22;53450;42.584;23.366;2023-04-03T00:31:48;4.54;74.57
66594;DHT22;53450;42.584;23.366;2023-04-03T00:34:13;4.61;74.42
66594;DHT22;53450;42.584;23.366;2023-04-03T00:36:39;4.60;75.05
66594;DHT22;53450;42.584;23.366;2023-04-03T00:39:04;4.50;75.49
66594;DHT22;53450;42.584;23.366;2023-04-03T00:41:31;4.43;76.02
66594;DHT22;53450;42.584;23.366;2023-04-03T00:43:58;4.49;75.57
66594;DHT22;53450;42.584;23.366;2023-04-03T00:46:23;4.50;75.54
66594;DHT22;53450;42.584;23.366;2023-04-03T00:48:49;4.50;75.29
66594;DHT22;53450;42.584;23.366;2023-04-03T00:51:25;4.52;75.40
66594;DHT22;53450;42.584;23.366;2023-04-03T00:54:00;4.49;75.43
66594;DHT22;53450;42.584;23.366;2023-04-03T00:56:27;4.53;75.34
66594;DHT22;53450;42.584;23.366;2023-04-03T00:59:02;4.50;75.51
66594;DHT22;53450;42.584;23.366;2023-04-03T01:01:29;4.56;75.14
66594;DHT22;53450;42.584;23.366;2023-04-03T01:03:57;4.60;75.14
66594;DHT22;53450;42.584;23.366;2023-04-03T01:06:26;4.67;74.80
66594;DHT22;53450;42.584;23.366;2023-04-03T01:08:53;4.73;74.64
66594;DHT22;53450;42.584;23.366;2023-04-03T01:11:44;4.85;73.95
66594;DHT22;53450;42.584;23.366;2023-04-03T01:14:35;5.01;73.57
66594;DHT22;53450;42.584;23.366;2023-04-03T01:17:01;5.07;72.96
66594;DHT22;53450;42.584;23.366;2023-04-03T01:19:26;5.11;72.92
66594;DHT22;53450;42.584;23.366;2023-04-03T01:26:58;4.88;73.15
66594;DHT22;53450;42.584;23.366;2023-04-03T01:29:24;4.92;73.01
66594;DHT22;53450;42.584;23.366;2023-04-03T01:31:56;4.77;73.19
66594;DHT22;53450;42.584;23.366;2023-04-03T01:34:22;4.60;73.15
66594;DHT22;53450;42.584;23.366;2023-04-03T01:36:49;4.60;73.75
66594;DHT22;53450;42.584;23.366;2023-04-03T01:39:16;4.58;73.70
66594;DHT22;53450;42.584;23.366;2023-04-03T01:41:43;4.54;74.05
66594;DHT22;53450;42.584;23.366;2023-04-03T01:44:22;4.26;74.76
66594;DHT22;53450;42.584;23.366;2023-04-03T01:46:48;4.28;74.99
66594;DHT22;53450;42.584;23.366;2023-04-03T01:49:14;4.40;74.69
66594;DHT22;53450;42.584;23.366;2023-04-03T01:51:39;4.37;73.78
66594;DHT22;53450;42.584;23.366;2023-04-03T01:54:30;4.30;74.36
66594;DHT22;53450;42.584;23.366;2023-04-03T01:56:56;4.25;74.73
66594;DHT22;53450;42.584;23.366;2023-04-03T01:59:22;4.19;74.81
66594;DHT22;53450;42.584;23.366;2023-04-03T02:01:47;4.16;74.99
66594;DHT22;53450;42.584;23.366;2023-04-03T02:04:13;4.06;75.31
66594;DHT22;53450;42.584;23.366;2023-04-03T02:06:39;4.09;75.51
66594;DHT22;53450;42.584;23.366;2023-04-03T02:09:06;4.06;75.50
66594;DHT22;53450;42.584;23.366;2023-04-03T02:11:32;4.13;75.18
66594;DHT22;53450;42.584;23.366;2023-04-03T02:13:57;4.13;75.49
66594;DHT22;53450;42.584;23.366;2023-04-03T02:16:23;3.96;75.96
66594;DHT22;53450;42.584;23.366;2023-04-03T02:18:49;3.88;76.12
66594;DHT22;53450;42.584;23.366;2023-04-03T02:21:15;3.81;76.49
66594;DHT22;53450;42.584;23.366;2023-04-03T02:23:41;3.82;76.95
66594;DHT22;53450;42.584;23.366;2023-04-03T02:26:09;3.82;77.13
66594;DHT22;53450;42.584;23.366;2023-04-03T02:28:36;3.84;77.15
66594;DHT22;53450;42.584;23.366;2023-04-03T02:31:02;3.78;76.95
66594;DHT22;53450;42.584;23.366;2023-04-03T02:33:29;3.67;77.14
66594;DHT22;53450;42.584;23.366;2023-04-03T02:35:56;3.63;77.18
66594;DHT22;53450;42.584;23.366;2023-04-03T02:38:23;3.63;77.03
66594;DHT22;53450;42.584;23.366;2023-04-03T02:40:49;3.53;76.91
66594;DHT22;53450;42.584;23.366;2023-04-03T02:43:15;3.53;77.34
66594;DHT22;53450;42.584;23.366;2023-04-03T02:45:42;3.57;77.24
66594;DHT22;53450;42.584;23.366;2023-04-03T02:48:08;3.58;77.32
66594;DHT22;53450;42.584;23.366;2023-04-03T02:50:34;3.57;77.54
66594;DHT22;53450;42.584;23.366;2023-04-03T02:53:00;3.57;77.57
66594;DHT22;53450;42.584;23.366;2023-04-03T02:55:26;3.55;77.69
66594;DHT22;53450;42.584;23.366;2023-04-03T02:57:54;3.53;77.90
66594;DHT22;53450;42.584;23.366;2023-04-03T03:00:20;3.55;79.04
66594;DHT22;53450;42.584;23.366;2023-04-03T03:02:46;3.51;77.78
66594;DHT22;53450;42.584;23.366;2023-04-03T03:05:11;3.50;77.84
66594;DHT22;53450;42.584;23.366;2023-04-03T03:07:38;3.44;78.30
66594;DHT22;53450;42.584;23.366;2023-04-03T03:10:28;3.47;78.57
66594;DHT22;53450;42.584;23.366;2023-04-03T03:13:18;3.41;78.30
66594;DHT22;53450;42.584;23.366;2023-04-03T03:15:44;3.36;78.56
66594;DHT22;53450;42.584;23.366;2023-04-03T03:18:10;3.31;78.78
66594;DHT22;53450;42.584;23.366;2023-04-03T03:20:35;3.31;79.10
66594;DHT22;53450;42.584;23.366;2023-04-03T03:23:01;3.31;78.93
66594;DHT22;53450;42.584;23.366;2023-04-03T03:25:27;3.28;78.93
66594;DHT22;53450;42.584;23.366;2023-04-03T03:27:52;3.30;78.89
66594;DHT22;53450;42.584;23.366;2023-04-03T03:30:18;3.27;79.45
66594;DHT22;53450;42.584;23.366;2023-04-03T03:32:44;3.33;79.37
66594;DHT22;53450;42.584;23.366;2023-04-03T03:35:10;3.28;79.58
66594;DHT22;53450;42.584;23.366;2023-04-03T03:37:36;3.27;79.53
66594;DHT22;53450;42.584;23.366;2023-04-03T03:40:02;3.27;79.66
66594;DHT22;53450;42.584;23.366;2023-04-03T03:42:29;3.26;79.98
66594;DHT22;53450;42.584;23.366;2023-04-03T03:44:55;3.33;80.00
66594;DHT22;53450;42.584;23.366;2023-04-03T03:47:20;3.37;79.47
66594;DHT22;53450;42.584;23.366;2023-04-03T03:49:47;3.23;79.26
66594;DHT22;53450;42.584;23.366;2023-04-03T03:52:13;3.26;79.36
66594;DHT22;53450;42.584;23.366;2023-04-03T03:54:39;3.37;79.23
66594;DHT22;53450;42.584;23.366;2023-04-03T03:57:05;3.44;78.73
66594;DHT22;53450;42.584;23.366;2023-04-03T03:59:55;3.34;78.90
66594;DHT22;53450;42.584;23.366;2023-04-03T04:02:22;3.43;78.96
66594;DHT22;53450;42.584;23.366;2023-04-03T04:04:48;3.43;78.99
66594;DHT22;53450;42.584;23.366;2023-04-03T04:07:14;3.48;78.77
66594;DHT22;53450;42.584;23.366;2023-04-03T04:09:40;3.60;78.36
66594;DHT22;53450;42.584;23.366;2023-04-03T04:12:07;3.50;78.41
66594;DHT22;53450;42.584;23.366;2023-04-03T04:14:33;3.37;78.89
66594;DHT22;53450;42.584;23.366;2023-04-03T04:17:00;3.27;79.45
66594;DHT22;53450;42.584;23.366;2023-04-03T04:19:28;3.28;79.77
66594;DHT22;53450;42.584;23.366;2023-04-03T04:21:53;3.31;79.91
66594;DHT22;53450;42.584;23.366;2023-04-03T04:24:19;3.41;80.04
66594;DHT22;53450;42.584;23.366;2023-04-03T04:26:46;3.45;80.19
66594;DHT22;53450;42.584;23.366;2023-04-03T04:29:14;3.48;80.04
66594;DHT22;53450;42.584;23.366;2023-04-03T04:31:40;3.64;79.62
66594;DHT22;53450;42.584;23.366;2023-04-03T04:34:31;3.65;79.76
66594;DHT22;53450;42.584;23.366;2023-04-03T04:37:22;3.65;79.85
66594;DHT22;53450;42.584;23.366;2023-04-03T04:39:48;3.65;80.12
66594;DHT22;53450;42.584;23.366;2023-04-03T04:42:14;3.64;79.99
66594;DHT22;53450;42.584;23.366;2023-04-03T04:44:40;3.75;80.24
66594;DHT22;53450;42.584;23.366;2023-04-03T04:47:06;3.74;80.11
66594;DHT22;53450;42.584;23.366;2023-04-03T04:49:57;3.89;79.95
66594;DHT22;53450;42.584;23.366;2023-04-03T04:52:23;3.95;79.74
66594;DHT22;53450;42.584;23.366;2023-04-03T04:54:49;3.99;79.77
66594;DHT22;53450;42.584;23.366;2023-04-03T04:57:15;4.09;78.96
66594;DHT22;53450;42.584;23.366;2023-04-03T04:59:43;4.40;78.12
66594;DHT22;53450;42.584;23.366;2023-04-03T05:02:09;4.49;77.86
66594;DHT22;53450;42.584;23.366;2023-04-03T05:04:37;4.50;77.81
66594;DHT22;53450;42.584;23.366;2023-04-03T05:07:08;4.56;77.55
66594;DHT22;53450;42.584;23.366;2023-04-03T05:09:35;4.73;77.42
66594;DHT22;53450;42.584;23.366;2023-04-03T05:12:01;4.80;77.31
66594;DHT22;53450;42.584;23.366;2023-04-03T05:14:33;4.99;76.80
66594;DHT22;53450;42.584;23.366;2023-04-03T05:17:02;5.16;76.36
66594;DHT22;53450;42.584;23.366;2023-04-03T05:19:31;5.28;76.10
66594;DHT22;53450;42.584;23.366;2023-04-03T05:22:21;5.49;75.56
66594;DHT22;53450;42.584;23.366;2023-04-03T05:25:12;5.67;75.20
66594;DHT22;53450;42.584;23.366;2023-04-03T05:27:42;5.69;75.37
66594;DHT22;53450;42.584;23.366;2023-04-03T05:30:08;5.78;75.42
66594;DHT22;53450;42.584;23.366;2023-04-03T05:32:35;5.78;75.32
66594;DHT22;53450;42.584;23.366;2023-04-03T05:35:11;5.62;75.78
66594;DHT22;53450;42.584;23.366;2023-04-03T05:37:39;5.46;76.65
66594;DHT22;53450;42.584;23.366;2023-04-03T05:40:05;5.64;76.35
66594;DHT22;53450;42.584;23.366;2023-04-03T05:42:32;5.87;76.17
66594;DHT22;53450;42.584;23.366;2023-04-03T05:44:58;6.04;75.75
66594;DHT22;53450;42.584;23.366;2023-04-03T05:47:24;6.20;75.02
66594;DHT22;53450;42.584;23.366;2023-04-03T05:49:50;6.35;74.31
66594;DHT22;53450;42.584;23.366;2023-04-03T05:52:27;6.18;74.17
66594;DHT22;53450;42.584;23.366;2023-04-03T05:54:54;6.20;74.50
66594;DHT22;53450;42.584;23.366;2023-04-03T05:57:24;6.45;72.77
66594;DHT22;53450;42.584;23.366;2023-04-03T05:59:50;6.57;71.68
66594;DHT22;53450;42.584;23.366;2023-04-03T06:02:41;6.68;70.54
66594;DHT22;53450;42.584;23.366;2023-04-03T06:05:32;6.73;70.88
66594;DHT22;53450;42.584;23.366;2023-04-03T06:07:58;6.87;71.60
66594;DHT22;53450;42.584;23.366;2023-04-03T06:10:24;6.96;71.19
66594;DHT22;53450;42.584;23.366;2023-04-03T06:12:50;6.86;71.71
66594;DHT22;53450;42.584;23.366;2023-04-03T06:15:16;6.75;71.28
66594;DHT22;53450;42.584;23.366;2023-04-03T06:17:42;6.86;71.67
66594;DHT22;53450;42.584;23.366;2023-04-03T06:20:09;6.91;72.08
66594;DHT22;53450;42.584;23.366;2023-04-03T06:22:35;6.96;72.56
66594;DHT22;53450;42.584;23.366;2023-04-03T06:25:01;7.18;71.48
66594;DHT22;53450;42.584;23.366;2023-04-03T06:27:27;7.28;70.88
66594;DHT22;53450;42.584;23.366;2023-04-03T06:29:52;7.36;70.80
66594;DHT22;53450;42.584;23.366;2023-04-03T06:32:18;7.41;71.44
66594;DHT22;53450;42.584;23.366;2023-04-03T06:34:44;7.69;70.96
66594;DHT22;53450;42.584;23.366;2023-04-03T06:37:35;7.62;70.81
66594;DHT22;53450;42.584;23.366;2023-04-03T06:40:01;7.49;71.52
66594;DHT22;53450;42.584;23.366;2023-04-03T06:42:27;7.76;71.02
66594;DHT22;53450;42.584;23.366;2023-04-03T06:45:17;7.94;70.49
66594;DHT22;53450;42.584;23.366;2023-04-03T06:47:43;7.85;70.36
66594;DHT22;53450;42.584;23.366;2023-04-03T06:50:36;8.03;69.93
66594;DHT22;53450;42.584;23.366;2023-04-03T06:53:26;8.17;70.15
66594;DHT22;53450;42.584;23.366;2023-04-03T06:55:52;8.26;69.64
66594;DHT22;53450;42.584;23.366;2023-04-03T06:58:18;8.37;69.46
66594;DHT22;53450;42.584;23.366;2023-04-03T07:00:45;8.42;69.31
66594;DHT22;53450;42.584;23.366;2023-04-03T07:03:10;8.47;68.99
66594;DHT22;53450;42.584;23.366;2023-04-03T07:05:36;8.34;68.67
66594;DHT22;53450;42.584;23.366;2023-04-03T07:08:02;8.48;68.51
66594;DHT22;53450;42.584;23.366;2023-04-03T07:10:27;8.62;68.11
66594;DHT22;53450;42.584;23.366;2023-04-03T07:12:53;8.71;68.39
66594;DHT22;53450;42.584;23.366;2023-04-03T07:15:18;8.68;68.41
66594;DHT22;53450;42.584;23.366;2023-04-03T07:17:44;8.52;68.66
66594;DHT22;53450;42.584;23.366;2023-04-03T07:20:10;8.57;69.15
66594;DHT22;53450;42.584;23.366;2023-04-03T07:22:36;8.86;68.43
66594;DHT22;53450;42.584;23.366;2023-04-03T07:25:02;9.12;67.26
66594;DHT22;53450;42.584;23.366;2023-04-03T07:27:28;9.33;67.23
66594;DHT22;53450;42.584;23.366;2023-04-03T07:29:54;9.38;66.27
66594;DHT22;53450;42.584;23.366;2023-04-03T07:32:21;9.51;65.37
66594;DHT22;53450;42.584;23.366;2023-04-03T07:34:46;9.62;63.53
66594;DHT22;53450;42.584;23.366;2023-04-03T07:37:12;9.70;63.23
66594;DHT22;53450;42.584;23.366;2023-04-03T07:39:38;9.88;63.58
66594;DHT22;53450;42.584;23.366;2023-04-03T07:42:03;9.99;62.83
66594;DHT22;53450;42.584;23.366;2023-04-03T07:44:29;10.13;62.11
66594;DHT22;53450;42.584;23.366;2023-04-03T07:46:56;10.10;63.62
66594;DHT22;53450;42.584;23.366;2023-04-03T07:49:22;10.15;64.02
66594;DHT22;53450;42.584;23.366;2023-04-03T07:51:49;10.20;63.09
66594;DHT22;53450;42.584;23.366;2023-04-03T07:54:15;9.94;66.45
66594;DHT22;53450;42.584;23.366;2023-04-03T07:56:41;9.67;67.05
66594;DHT22;53450;42.584;23.366;2023-04-03T07:59:11;9.54;67.20
66594;DHT22;53450;42.584;23.366;2023-04-03T08:01:37;9.30;67.53
66594;DHT22;53450;42.584;23.366;2023-04-03T08:04:02;9.19;68.45
66594;DHT22;53450;42.584;23.366;2023-04-03T08:06:30;9.16;68.24
66594;DHT22;53450;42.584;23.366;2023-04-03T08:08:58;9.10;68.27
66594;DHT22;53450;42.584;23.366;2023-04-03T08:11:24;9.09;68.73
66594;DHT22;53450;42.584;23.366;2023-04-03T08:13:54;9.12;68.59
66594;DHT22;53450;42.584;23.366;2023-04-03T08:16:22;9.20;68.50
66594;DHT22;53450;42.584;23.366;2023-04-03T08:18:50;9.37;67.08
66594;DHT22;53450;42.584;23.366;2023-04-03T08:21:16;9.47;66.93
66594;DHT22;53450;42.584;23.366;2023-04-03T08:23:42;9.54;66.78
66594;DHT22;53450;42.584;23.366;2023-04-03T08:26:13;9.70;65.38
66594;DHT22;53450;42.584;23.366;2023-04-03T08:28:39;9.85;64.66
66594;DHT22;53450;42.584;23.366;2023-04-03T08:31:06;9.74;63.66
66594;DHT22;53450;42.584;23.366;2023-04-03T08:33:33;9.79;63.78
66594;DHT22;53450;42.584;23.366;2023-04-03T08:36:01;9.96;63.15
66594;DHT22;53450;42.584;23.366;2023-04-03T08:38:27;10.22;62.35
66594;DHT22;53450;42.584;23.366;2023-04-03T08:41:04;10.50;61.21
66594;DHT22;53450;42.584;23.366;2023-04-03T08:43:40;10.59;59.68
66594;DHT22;53450;42.584;23.366;2023-04-03T08:46:13;10.57;58.48
66594;DHT22;53450;42.584;23.366;2023-04-03T08:48:42;10.73;56.28
66594;DHT22;53450;42.584;23.366;2023-04-03T08:51:14;10.93;55.29
66594;DHT22;53450;42.584;23.366;2023-04-03T08:53:45;11.12;55.95
66594;DHT22;53450;42.584;23.366;2023-04-03T08:56:15;11.18;54.33
66594;DHT22;53450;42.584;23.366;2023-04-03T08:58:56;11.08;54.28
66594;DHT22;53450;42.584;23.366;2023-04-03T09:01:27;11.00;55.48
66594;DHT22;53450;42.584;23.366;2023-04-03T09:03:55;11.07;54.83
66594;DHT22;53450;42.584;23.366;2023-04-03T09:06:25;11.01;54.47
66594;DHT22;53450;42.584;23.366;2023-04-03T09:09:21;10.94;55.90
66594;DHT22;53450;42.584;23.366;2023-04-03T09:12:17;11.08;55.06
66594;DHT22;53450;42.584;23.366;2023-04-03T09:15:28;11.24;54.47
66594;DHT22;53450;42.584;23.366;2023-04-03T09:20:38;11.16;55.72
66594;DHT22;53450;42.584;23.366;2023-04-03T09:23:18;11.07;55.16
66594;DHT22;53450;42.584;23.366;2023-04-03T09:25:45;10.84;55.16
66594;DHT22;53450;42.584;23.366;2023-04-03T09:28:11;10.78;55.74
66594;DHT22;53450;42.584;23.366;2023-04-03T09:30:41;10.78;56.60
66594;DHT22;53450;42.584;23.366;2023-04-03T09:33:08;10.77;56.96
66594;DHT22;53450;42.584;23.366;2023-04-03T09:35:37;10.60;56.87
66594;DHT22;53450;42.584;23.366;2023-04-03T09:40:48;10.73;56.94
66594;DHT22;53450;42.584;23.366;2023-04-03T09:43:52;10.97;56.00
66594;DHT22;53450;42.584;23.366;2023-04-03T09:46:43;11.16;54.91
66594;DHT22;53450;42.584;23.366;2023-04-03T09:49:11;11.15;56.15
66594;DHT22;53450;42.584;23.366;2023-04-03T09:51:37;11.07;55.18
66594;DHT22;53450;42.584;23.366;2023-04-03T09:56:51;10.95;55.83
66594;DHT22;53450;42.584;23.366;2023-04-03T09:59:18;10.90;55.46
66594;DHT22;53450;42.584;23.366;2023-04-03T10:02:32;10.59;57.08
66594;DHT22;53450;42.584;23.366;2023-04-03T10:04:50;10.40;57.30
66594;DHT22;53450;42.584;23.366;2023-04-03T10:07:36;10.49;57.86
66594;DHT22;53450;42.584;23.366;2023-04-03T10:12:42;10.54;58.82
66594;DHT22;53450;42.584;23.366;2023-04-03T10:15:12;10.64;57.49
66594;DHT22;53450;42.584;23.366;2023-04-03T10:17:47;10.64;57.06
66594;DHT22;53450;42.584;23.366;2023-04-03T10:28:30;10.64;57.76
66594;DHT22;53450;42.584;23.366;2023-04-03T10:36:33;10.59;58.76
66594;DHT22;53450;42.584;23.366;2023-04-03T10:45:28;10.26;60.16
66594;DHT22;53450;42.584;23.366;2023-04-03T10:48:10;10.12;60.55
66594;DHT22;53450;42.584;23.366;2023-04-03T10:53:44;10.13;63.08
66594;DHT22;53450;42.584;23.366;2023-04-03T10:58:58;10.16;64.17
66594;DHT22;53450;42.584;23.366;2023-04-03T11:01:31;10.19;66.07
66594;DHT22;53450;42.584;23.366;2023-04-03T11:03:59;10.10;66.86
66594;DHT22;53450;42.584;23.366;2023-04-03T11:06:50;10.09;68.38
66594;DHT22;53450;42.584;23.366;2023-04-03T11:09:23;10.02;69.12
66594;DHT22;53450;42.584;23.366;2023-04-03T11:11:55;9.98;71.27
66594;DHT22;53450;42.584;23.366;2023-04-03T11:14:34;9.94;73.44
66594;DHT22;53450;42.584;23.366;2023-04-03T11:17:08;9.84;74.58
66594;DHT22;53450;42.584;23.366;2023-04-03T11:22:23;9.40;76.16
66594;DHT22;53450;42.584;23.366;2023-04-03T11:27:42;9.34;77.65
66594;DHT22;53450;42.584;23.366;2023-04-03T11:35:27;8.96;78.24
66594;DHT22;53450;42.584;23.366;2023-04-03T11:37:54;9.03;77.83
66594;DHT22;53450;42.584;23.366;2023-04-03T13:24:15;7.32;82.51
66594;DHT22;53450;42.584;23.366;2023-04-03T13:31:38;7.27;82.40
66594;DHT22;53450;42.584;23.366;2023-04-03T13:34:56;7.22;81.64
66594;DHT22;53450;42.584;23.366;2023-04-03T13:38:21;7.24;82.57
66594;DHT22;53450;42.584;23.366;2023-04-03T13:45:33;7.25;82.69
66594;DHT22;53450;42.584;23.366;2023-04-03T13:53:14;7.27;82.43
66594;DHT22;53450;42.584;23.366;2023-04-03T13:57:03;7.14;82.05
66594;DHT22;53450;42.584;23.366;2023-04-03T15:41:57;6.17;84.45
66594;DHT22;53450;42.584;23.366;2023-04-03T15:44:29;6.21;83.79
66594;DHT22;53450;42.584;23.366;2023-04-03T15:46:54;6.10;83.80
66594;DHT22;53450;42.584;23.366;2023-04-03T15:49:21;6.08;84.26
66594;DHT22;53450;42.584;23.366;2023-04-03T15:51:47;6.15;84.67
66594;DHT22;53450;42.584;23.366;2023-04-03T15:54:13;6.31;84.65
66594;DHT22;53450;42.584;23.366;2023-04-03T15:56:38;6.35;84.24
66594;DHT22;53450;42.584;23.366;2023-04-03T15:59:04;6.39;84.19
66594;DHT22;53450;42.584;23.366;2023-04-03T16:01:55;6.38;84.10
66594;DHT22;53450;42.584;23.366;2023-04-03T16:04:46;6.31;84.43
66594;DHT22;53450;42.584;23.366;2023-04-03T16:07:11;6.35;84.03
66594;DHT22;53450;42.584;23.366;2023-04-03T16:09:37;6.35;83.97
66594;DHT22;53450;42.584;23.366;2023-04-03T16:12:03;6.45;83.77
66594;DHT22;53450;42.584;23.366;2023-04-03T16:14:29;6.45;83.43
66594;DHT22;53450;42.584;23.366;2023-04-03T16:16:57;6.35;82.47
66594;DHT22;53450;42.584;23.366;2023-04-03T16:19:23;6.25;83.76
66594;DHT22;53450;42.584;23.366;2023-04-03T16:21:49;6.25;84.01
66594;DHT22;53450;42.584;23.366;2023-04-03T16:24:15;6.28;83.75
66594;DHT22;53450;42.584;23.366;2023-04-03T16:26:43;6.26;83.99
66594;DHT22;53450;42.584;23.366;2023-04-03T16:29:09;6.45;83.31
66594;DHT22;53450;42.584;23.366;2023-04-03T16:31:35;6.41;83.07
66594;DHT22;53450;42.584;23.366;2023-04-03T16:34:00;6.35;83.32
66594;DHT22;53450;42.584;23.366;2023-04-03T16:36:26;6.25;83.88
66594;DHT22;53450;42.584;23.366;2023-04-03T16:38:52;6.24;84.16
66594;DHT22;53450;42.584;23.366;2023-04-03T16:41:18;6.21;84.31
66594;DHT22;53450;42.584;23.366;2023-04-03T16:43:47;6.14;84.24
66594;DHT22;53450;42.584;23.366;2023-04-03T16:46:13;5.98;83.54
66594;DHT22;53450;42.584;23.366;2023-04-03T16:48:39;5.93;83.35
66594;DHT22;53450;42.584;23.366;2023-04-03T16:51:04;5.90;84.22
66594;DHT22;53450;42.584;23.366;2023-04-03T16:53:30;5.94;83.81
66594;DHT22;53450;42.584;23.366;2023-04-03T16:55:57;5.91;83.62
66594;DHT22;53450;42.584;23.366;2023-04-03T16:58:23;6.00;83.85
66594;DHT22;53450;42.584;23.366;2023-04-03T17:00:49;5.98;83.98
66594;DHT22;53450;42.584;23.366;2023-04-03T17:03:14;6.10;84.31
66594;DHT22;53450;42.584;23.366;2023-04-03T17:05:40;6.02;83.71
66594;DHT22;53450;42.584;23.366;2023-04-03T17:08:08;6.04;83.80
66594;DHT22;53450;42.584;23.366;2023-04-03T17:10:34;6.05;84.32
66594;DHT22;53450;42.584;23.366;2023-04-03T17:13:01;5.93;84.57
66594;DHT22;53450;42.584;23.366;2023-04-03T17:15:27;6.08;84.64
66594;DHT22;53450;42.584;23.366;2023-04-03T17:17:53;6.14;84.27
66594;DHT22;53450;42.584;23.366;2023-04-03T17:20:19;6.15;84.53
66594;DHT22;53450;42.584;23.366;2023-04-03T17:22:45;6.07;85.24
66594;DHT22;53450;42.584;23.366;2023-04-03T17:25:11;6.05;83.94
66594;DHT22;53450;42.584;23.366;2023-04-03T17:27:38;6.00;84.06
66594;DHT22;53450;42.584;23.366;2023-04-03T17:30:07;5.90;85.16
66594;DHT22;53450;42.584;23.366;2023-04-03T17:32:33;5.90;85.42
66594;DHT22;53450;42.584;23.366;2023-04-03T17:34:59;6.08;85.36
66594;DHT22;53450;42.584;23.366;2023-04-03T17:37:27;6.07;85.64
66594;DHT22;53450;42.584;23.366;2023-04-03T17:39:53;6.11;84.90
66594;DHT22;53450;42.584;23.366;2023-04-03T17:42:18;6.10;84.93
66594;DHT22;53450;42.584;23.366;2023-04-03T17:44:45;6.14;85.07
66594;DHT22;53450;42.584;23.366;2023-04-03T17:47:14;6.04;85.01
66594;DHT22;53450;42.584;23.366;2023-04-03T17:49:39;6.12;84.99
66594;DHT22;53450;42.584;23.366;2023-04-03T17:52:05;6.12;85.18
66594;DHT22;53450;42.584;23.366;2023-04-03T17:54:31;6.10;85.81
66594;DHT22;53450;42.584;23.366;2023-04-03T17:56:56;6.07;85.96
66594;DHT22;53450;42.584;23.366;2023-04-03T17:59:22;6.05;85.75
66594;DHT22;53450;42.584;23.366;2023-04-03T18:01:48;6.04;86.08
66594;DHT22;53450;42.584;23.366;2023-04-03T18:04:13;6.07;86.13
66594;DHT22;53450;42.584;23.366;2023-04-03T18:06:42;6.00;86.02
66594;DHT22;53450;42.584;23.366;2023-04-03T18:09:14;5.90;85.80
66594;DHT22;53450;42.584;23.366;2023-04-03T18:11:45;5.94;85.94
66594;DHT22;53450;42.584;23.366;2023-04-03T18:14:13;6.01;85.81
66594;DHT22;53450;42.584;23.366;2023-04-03T18:16:39;6.04;85.90
66594;DHT22;53450;42.584;23.366;2023-04-03T18:19:05;5.98;85.93
66594;DHT22;53450;42.584;23.366;2023-04-03T18:21:32;6.08;85.30
66594;DHT22;53450;42.584;23.366;2023-04-03T18:23:58;6.12;84.66
66594;DHT22;53450;42.584;23.366;2023-04-03T18:26:25;6.11;84.86
66594;DHT22;53450;42.584;23.366;2023-04-03T18:29:02;6.11;84.96
66594;DHT22;53450;42.584;23.366;2023-04-03T18:31:31;6.12;85.25
66594;DHT22;53450;42.584;23.366;2023-04-03T18:34:00;6.11;85.54
66594;DHT22;53450;42.584;23.366;2023-04-03T18:36:28;6.14;85.70
66594;DHT22;53450;42.584;23.366;2023-04-03T18:38:54;6.02;86.10
66594;DHT22;53450;42.584;23.366;2023-04-03T18:41:27;6.14;85.59
66594;DHT22;53450;42.584;23.366;2023-04-03T18:43:56;6.10;85.81
66594;DHT22;53450;42.584;23.366;2023-04-03T18:46:24;6.17;85.36
66594;DHT22;53450;42.584;23.366;2023-04-03T18:48:50;6.10;85.50
66594;DHT22;53450;42.584;23.366;2023-04-03T18:51:15;6.00;85.81
66594;DHT22;53450;42.584;23.366;2023-04-03T18:53:41;6.12;86.19
66594;DHT22;53450;42.584;23.366;2023-04-03T18:56:07;6.14;85.53
66594;DHT22;53450;42.584;23.366;2023-04-03T18:58:33;6.10;85.17
66594;DHT22;53450;42.584;23.366;2023-04-03T19:00:59;6.01;85.75
66594;DHT22;53450;42.584;23.366;2023-04-03T19:04:07;5.97;85.97
66594;DHT22;53450;42.584;23.366;2023-04-03T19:06:58;5.86;86.41
66594;DHT22;53450;42.584;23.366;2023-04-03T19:09:24;5.87;86.32
66594;DHT22;53450;42.584;23.366;2023-04-03T19:11:50;5.87;86.16
66594;DHT22;53450;42.584;23.366;2023-04-03T19:14:16;5.91;86.27
66594;DHT22;53450;42.584;23.366;2023-04-03T19:16:42;5.89;85.96
66594;DHT22;53450;42.584;23.366;2023-04-03T19:19:08;5.89;85.94
66594;DHT22;53450;42.584;23.366;2023-04-03T19:21:34;5.95;85.97
66594;DHT22;53450;42.584;23.366;2023-04-03T19:24:13;5.98;85.83
66594;DHT22;53450;42.584;23.366;2023-04-03T19:26:43;6.07;85.82
66594;DHT22;53450;42.584;23.366;2023-04-03T19:29:10;6.05;85.96
66594;DHT22;53450;42.584;23.366;2023-04-03T19:31:39;6.01;86.27
66594;DHT22;53450;42.584;23.366;2023-04-03T19:34:09;5.86;86.37
66594;DHT22;53450;42.584;23.366;2023-04-03T19:36:36;6.02;86.25
66594;DHT22;53450;42.584;23.366;2023-04-03T19:39:02;6.04;86.30
66594;DHT22;53450;42.584;23.366;2023-04-03T19:41:35;6.21;86.04
66594;DHT22;53450;42.584;23.366;2023-04-03T19:44:05;6.20;85.72
66594;DHT22;53450;42.584;23.366;2023-04-03T19:46:32;6.10;85.95
66594;DHT22;53450;42.584;23.366;2023-04-03T19:48:58;6.08;86.00
66594;DHT22;53450;42.584;23.366;2023-04-03T19:51:23;6.10;85.91
66594;DHT22;53450;42.584;23.366;2023-04-03T19:53:52;6.12;86.08
66594;DHT22;53450;42.584;23.366;2023-04-03T19:56:18;6.14;86.13
66594;DHT22;53450;42.584;23.366;2023-04-03T19:58:52;6.11;86.29
66594;DHT22;53450;42.584;23.366;2023-04-03T20:01:20;6.12;86.08
66594;DHT22;53450;42.584;23.366;2023-04-03T20:04:19;6.21;85.89
66594;DHT22;53450;42.584;23.366;2023-04-03T20:06:47;6.15;86.12
66594;DHT22;53450;42.584;23.366;2023-04-03T20:09:15;6.15;85.81
66594;DHT22;53450;42.584;23.366;2023-04-03T20:12:07;6.11;86.14
66594;DHT22;53450;42.584;23.366;2023-04-03T20:14:59;6.20;86.15
66594;DHT22;53450;42.584;23.366;2023-04-03T20:17:28;6.17;85.92
66594;DHT22;53450;42.584;23.366;2023-04-03T20:19:57;6.22;85.19